createdAt,value
2018-09-12T00:05:40.799Z,66.91
2018-09-12T00:08:09.626Z,66.44
2018-09-12T00:10:38.523Z,68.21
2018-09-12T00:13:08.251Z,67.58
2018-09-12T00:15:37.215Z,67.66
2018-09-12T00:18:06.187Z,67.42
2018-09-12T00:20:35.557Z,67.58
2018-09-12T00:23:04.683Z,67.78
2018-09-12T00:25:33.516Z,68.03
2018-09-12T00:28:02.510Z,68.19
2018-09-12T00:30:31.612Z,68.11
2018-09-12T00:33:00.680Z,67.60
2018-09-12T00:35:29.476Z,67.97
2018-09-12T00:37:58.379Z,68.87
2018-09-12T00:40:27.594Z,68.86
2018-09-12T00:42:57.073Z,68.83
2018-09-12T00:45:25.977Z,68.77
2018-09-12T00:47:55.228Z,68.91
2018-09-12T00:50:24.675Z,69.37
2018-09-12T00:52:53.744Z,69.91
2018-09-12T00:55:23.045Z,69.76
2018-09-12T00:57:51.971Z,69.80
2018-09-12T01:00:20.856Z,70.27
2018-09-12T01:02:49.982Z,70.25
2018-09-12T01:05:18.756Z,70.48
2018-09-12T01:07:47.746Z,71.19
2018-09-12T01:10:16.450Z,70.42
2018-09-12T01:12:45.448Z,70.82
2018-09-12T01:15:14.524Z,70.56
2018-09-12T01:17:43.725Z,70.43
2018-09-12T01:20:12.724Z,70.32
2018-09-12T01:22:41.383Z,69.97
2018-09-12T01:25:10.455Z,70.66
2018-09-12T01:27:39.657Z,70.03
2018-09-12T01:30:10.334Z,70.09
2018-09-12T01:32:39.267Z,69.61
2018-09-12T01:35:08.332Z,69.18
2018-09-12T01:37:37.406Z,70.58
2018-09-12T01:40:06.435Z,70.28
2018-09-12T01:42:36.015Z,71.47
2018-09-12T01:45:04.956Z,72.11
2018-09-12T01:47:34.151Z,72.01
2018-09-12T01:50:03.155Z,71.51
2018-09-12T01:52:31.955Z,72.44
2018-09-12T01:55:00.989Z,72.45
2018-09-12T01:57:29.663Z,71.96
2018-09-12T01:59:58.952Z,70.71
2018-09-12T02:02:27.968Z,69.74
2018-09-12T02:04:56.679Z,69.87
2018-09-12T02:07:25.687Z,70.41
2018-09-12T02:09:54.437Z,71.57
2018-09-12T02:12:23.544Z,72.22
2018-09-12T02:14:52.570Z,73.09
2018-09-12T02:17:21.219Z,72.93
2018-09-12T02:19:50.325Z,73.01
2018-09-12T02:22:19.509Z,73.17
2018-09-12T02:24:49.112Z,73.23
2018-09-12T02:27:18.129Z,73.61
2018-09-12T02:29:47.468Z,73.55
2018-09-12T02:32:16.306Z,74.45
2018-09-12T02:34:45.115Z,74.31
2018-09-12T02:37:13.986Z,74.94
2018-09-12T02:39:42.891Z,74.87
2018-09-12T02:42:11.879Z,75.23
2018-09-12T02:44:41.215Z,76.08
2018-09-12T02:47:14.996Z,76.38
2018-09-12T02:49:43.951Z,76.56
2018-09-12T02:52:12.548Z,75.90
2018-09-12T02:54:41.672Z,75.20
2018-09-12T02:57:10.707Z,75.01
2018-09-12T02:59:39.759Z,74.67
2018-09-12T03:02:08.863Z,75.40
2018-09-12T03:04:49.955Z,76.11
2018-09-12T03:07:19.238Z,75.23
2018-09-12T03:09:48.326Z,76.35
2018-09-12T03:12:17.467Z,75.25
2018-09-12T03:14:46.531Z,75.30
2018-09-12T03:17:15.622Z,75.65
2018-09-12T03:19:44.847Z,75.85
2018-09-12T03:22:13.819Z,76.96
2018-09-12T03:24:42.816Z,76.77
2018-09-12T03:27:11.950Z,75.14
2018-09-12T03:29:40.811Z,76.37
2018-09-12T03:32:09.743Z,77.56
2018-09-12T03:34:39.131Z,78.32
2018-09-12T03:37:07.897Z,78.25
2018-09-12T03:39:36.883Z,78.23
2018-09-12T03:42:06.339Z,79.09
2018-09-12T03:44:35.131Z,79.76
2018-09-12T03:47:04.259Z,79.56
2018-09-12T03:49:33.481Z,79.75
2018-09-12T03:52:02.154Z,79.33
2018-09-12T03:54:30.930Z,79.52
2018-09-12T03:57:00.276Z,79.20
2018-09-12T03:59:29.111Z,79.57
2018-09-12T04:01:57.820Z,79.58
2018-09-12T04:04:27.055Z,79.48
2018-09-12T04:06:55.931Z,79.92
2018-09-12T04:09:25.033Z,80.11
2018-09-12T04:11:54.321Z,79.72
2018-09-12T04:14:23.219Z,79.39
2018-09-12T04:16:52.167Z,78.03
2018-09-12T04:19:20.987Z,76.81
2018-09-12T04:21:49.872Z,74.60
2018-09-12T04:24:18.652Z,72.56
2018-09-12T04:26:47.895Z,71.07
2018-09-12T04:29:16.791Z,69.53
2018-09-12T04:31:45.568Z,67.45
2018-09-12T04:34:15.384Z,65.85
2018-09-12T04:36:44.394Z,64.48
2018-09-12T04:39:13.843Z,62.53
2018-09-12T04:41:44.217Z,60.60
2018-09-12T04:44:12.987Z,58.17
2018-09-12T04:46:42.495Z,56.92
2018-09-12T04:49:11.869Z,56.48
2018-09-12T04:51:40.696Z,54.91
2018-09-12T04:54:09.785Z,54.09
2018-09-12T04:56:38.583Z,52.50
2018-09-12T04:59:07.477Z,51.54
2018-09-12T05:01:36.455Z,50.82
2018-09-12T05:04:05.470Z,49.24
2018-09-12T05:06:34.399Z,46.47
2018-09-12T05:09:03.308Z,44.83
2018-09-12T05:11:32.375Z,43.91
2018-09-12T05:14:01.353Z,43.85
2018-09-12T05:16:30.236Z,43.70
2018-09-12T05:18:59.151Z,42.60
2018-09-12T05:21:28.032Z,44.31
2018-09-12T05:23:56.906Z,43.17
2018-09-12T05:26:25.786Z,42.42
2018-09-12T05:28:54.898Z,41.09
2018-09-12T05:31:24.208Z,39.16
2018-09-12T05:33:53.432Z,38.80
2018-09-12T05:36:22.102Z,37.64
2018-09-12T05:38:50.926Z,37.26
2018-09-12T05:41:19.993Z,37.95
2018-09-12T05:43:49.273Z,37.57
2018-09-12T05:46:18.278Z,37.38
2018-09-12T05:48:47.541Z,36.81
2018-09-12T05:51:16.558Z,36.73
2018-09-12T05:53:45.557Z,34.98
2018-09-12T05:56:14.622Z,33.94
2018-09-12T05:58:43.427Z,33.81
2018-09-12T06:01:12.188Z,33.85
2018-09-12T06:03:41.452Z,33.65
2018-09-12T06:06:10.526Z,34.05
2018-09-12T06:08:39.431Z,33.15
2018-09-12T06:11:08.456Z,33.45
2018-09-12T06:13:37.199Z,33.54
2018-09-12T06:16:05.999Z,33.14
2018-09-12T06:18:35.175Z,32.31
2018-09-12T06:21:04.464Z,31.99
2018-09-12T06:23:33.663Z,32.93
2018-09-12T06:26:02.965Z,31.42
2018-09-12T06:28:32.241Z,30.62
2018-09-12T06:31:01.511Z,31.51
2018-09-12T06:33:30.925Z,31.03
2018-09-12T06:36:00.315Z,30.57
2018-09-12T06:38:29.673Z,30.66
2018-09-12T06:40:59.301Z,30.03
2018-09-12T06:43:28.822Z,30.24
2018-09-12T06:46:37.532Z,29.52
2018-09-12T06:49:07.194Z,29.58
2018-09-12T06:51:36.316Z,29.27
2018-09-12T06:54:05.871Z,28.72
2018-09-12T06:56:35.361Z,29.26
2018-09-12T06:59:04.955Z,29.86
2018-09-12T07:01:34.415Z,27.32
2018-09-12T07:04:04.003Z,28.40
2018-09-12T07:06:33.029Z,28.02
2018-09-12T07:09:02.477Z,27.80
2018-09-12T07:11:32.303Z,28.49
2018-09-12T07:14:01.685Z,28.54
2018-09-12T07:16:31.147Z,28.26
2018-09-12T07:19:00.747Z,27.87
2018-09-12T07:21:30.374Z,27.61
2018-09-12T07:23:59.939Z,26.39
2018-09-12T07:26:29.354Z,27.00
2018-09-12T07:28:58.891Z,27.25
2018-09-12T07:31:28.093Z,26.33
2018-09-12T07:33:57.267Z,25.82
2018-09-12T07:36:26.850Z,26.18
2018-09-12T07:38:56.354Z,24.75
2018-09-12T07:41:25.732Z,24.81
2018-09-12T07:43:55.599Z,24.96
2018-09-12T07:46:24.995Z,25.00
2018-09-12T07:48:54.310Z,25.73
2018-09-12T07:51:23.804Z,27.42
2018-09-12T07:53:53.466Z,26.69
2018-09-12T07:56:22.650Z,25.15
2018-09-12T07:58:52.051Z,24.84
2018-09-12T08:01:21.607Z,24.20
2018-09-12T08:03:51.010Z,23.22
2018-09-12T08:06:20.540Z,23.39
2018-09-12T08:08:49.759Z,23.19
2018-09-12T08:11:19.035Z,24.12
2018-09-12T08:13:48.144Z,24.09
2018-09-12T08:16:17.399Z,24.39
2018-09-12T08:18:46.632Z,25.09
2018-09-12T08:21:16.354Z,26.68
2018-09-12T08:23:45.755Z,26.12
2018-09-12T08:26:15.186Z,26.11
2018-09-12T08:28:45.024Z,26.96
2018-09-12T08:31:14.478Z,29.21
2018-09-12T08:33:43.972Z,29.42
2018-09-12T08:36:13.492Z,27.86
2018-09-12T08:38:43.561Z,25.54
2018-09-12T08:41:13.003Z,25.64
2018-09-12T08:43:42.770Z,26.71
2018-09-12T08:46:11.918Z,27.31
2018-09-12T08:48:41.325Z,27.35
2018-09-12T08:51:11.268Z,27.52
2018-09-12T08:53:40.555Z,27.44
2018-09-12T08:56:10.056Z,27.49
2018-09-12T08:58:39.595Z,28.35
2018-09-12T09:01:08.970Z,27.60
2018-09-12T09:03:38.411Z,26.87
2018-09-12T09:06:07.978Z,27.20
2018-09-12T09:08:37.382Z,27.30
2018-09-12T09:11:06.726Z,27.58
2018-09-12T09:13:37.187Z,26.36
2018-09-12T09:16:06.577Z,26.30
2018-09-12T09:18:35.839Z,26.54
2018-09-12T09:21:05.865Z,27.53
2018-09-12T09:23:35.174Z,28.29
2018-09-12T09:26:04.436Z,30.67
2018-09-12T09:28:34.758Z,31.26
2018-09-12T09:31:04.063Z,30.90
2018-09-12T09:33:33.475Z,29.55
2018-09-12T09:36:02.898Z,30.14
2018-09-12T09:38:32.323Z,29.42
2018-09-12T09:41:01.511Z,29.34
2018-09-12T09:43:30.852Z,29.60
2018-09-12T09:46:00.117Z,29.62
2018-09-12T09:48:29.465Z,29.52
2018-09-12T09:50:58.919Z,29.97
2018-09-12T09:53:28.718Z,30.08
2018-09-12T09:55:58.106Z,30.56
2018-09-12T09:58:27.815Z,30.07
2018-09-12T10:01:02.095Z,30.36
2018-09-12T10:03:36.567Z,31.11
2018-09-12T10:06:10.770Z,30.57
2018-09-12T10:08:45.188Z,29.60
2018-09-12T10:11:14.382Z,29.76
2018-09-12T10:13:43.813Z,29.38
2018-09-12T10:16:13.297Z,28.20
2018-09-12T10:18:42.721Z,27.55
2018-09-12T10:21:12.094Z,26.69
2018-09-12T10:23:41.808Z,25.55
2018-09-12T10:26:11.240Z,24.82
2018-09-12T10:28:40.534Z,24.57
2018-09-12T10:31:09.971Z,24.27
2018-09-12T10:33:39.235Z,25.48
2018-09-12T10:36:09.449Z,25.58
2018-09-12T10:38:38.786Z,27.23
2018-09-12T10:41:08.126Z,28.16
2018-09-12T10:43:37.369Z,28.52
2018-09-12T10:46:06.801Z,29.50
2018-09-12T10:48:36.167Z,29.56
2018-09-12T10:51:05.487Z,29.90
2018-09-12T10:53:34.986Z,29.82
2018-09-12T10:56:04.376Z,28.92
2018-09-12T10:58:34.711Z,29.45
2018-09-12T11:01:04.336Z,28.97
2018-09-12T11:03:33.723Z,29.65
2018-09-12T11:06:03.017Z,29.69
2018-09-12T11:08:33.141Z,29.85
2018-09-12T11:11:02.511Z,28.92
2018-09-12T11:13:31.802Z,28.64
2018-09-12T11:16:01.481Z,28.96
2018-09-12T11:18:30.885Z,28.99
2018-09-12T11:21:00.258Z,29.01
2018-09-12T11:23:29.878Z,29.84
2018-09-12T11:25:59.862Z,30.13
2018-09-12T11:28:29.173Z,30.05
2018-09-12T11:30:59.071Z,30.75
2018-09-12T11:33:30.049Z,30.71
2018-09-12T11:35:59.362Z,31.63
2018-09-12T11:38:29.098Z,30.96
2018-09-12T11:40:58.367Z,29.82
2018-09-12T11:43:27.787Z,30.84
2018-09-12T11:45:57.242Z,29.87
2018-09-12T11:48:26.823Z,30.75
2018-09-12T11:50:56.205Z,31.33
2018-09-12T11:53:25.906Z,32.12
2018-09-12T11:55:55.105Z,31.95
2018-09-12T11:58:24.395Z,31.77
2018-09-12T12:00:54.011Z,31.46
2018-09-12T12:03:23.408Z,31.32
2018-09-12T12:05:53.591Z,31.56
2018-09-12T12:08:22.863Z,31.47
2018-09-12T12:10:52.143Z,30.74
2018-09-12T12:13:21.364Z,31.19
2018-09-12T12:15:51.731Z,31.28
2018-09-12T12:18:21.170Z,30.59
2018-09-12T12:20:51.217Z,30.60
2018-09-12T12:23:20.970Z,29.99
2018-09-12T12:25:50.307Z,30.69
2018-09-12T12:28:19.599Z,31.02
2018-09-12T12:30:49.200Z,30.70
2018-09-12T12:33:18.626Z,31.70
2018-09-12T12:35:48.003Z,32.28
2018-09-12T12:38:18.419Z,32.81
2018-09-12T12:40:47.823Z,33.11
2018-09-12T12:43:16.980Z,32.99
2018-09-12T12:45:46.540Z,33.88
2018-09-12T12:48:16.658Z,33.55
2018-09-12T12:50:46.099Z,32.50
2018-09-12T12:53:15.820Z,31.95
2018-09-12T12:55:45.103Z,32.42
2018-09-12T12:58:14.979Z,32.23
2018-09-12T13:00:44.520Z,32.79
2018-09-12T13:03:13.935Z,32.36
2018-09-12T13:05:43.422Z,31.20
2018-09-12T13:08:13.009Z,32.04
2018-09-12T13:10:42.360Z,32.01
2018-09-12T13:13:11.835Z,32.37
2018-09-12T13:15:41.443Z,30.67
2018-09-12T13:18:10.742Z,31.46
2018-09-12T13:20:39.967Z,30.10
2018-09-12T13:23:09.317Z,30.05
2018-09-12T13:25:38.688Z,30.42
2018-09-12T13:28:07.967Z,30.58
2018-09-12T13:30:37.291Z,30.48
2018-09-12T13:33:06.890Z,30.67
2018-09-12T13:35:36.280Z,30.76
2018-09-12T13:38:05.739Z,30.56
2018-09-12T13:40:35.912Z,30.60
2018-09-12T13:43:05.225Z,31.47
2018-09-12T13:45:34.531Z,31.89
2018-09-12T13:48:03.920Z,31.62
2018-09-12T13:50:33.224Z,31.95
2018-09-12T13:53:02.812Z,31.23
2018-09-12T13:55:32.013Z,31.67
2018-09-12T13:58:01.317Z,31.56
2018-09-12T14:00:31.608Z,31.77
2018-09-12T14:03:03.205Z,31.99
2018-09-12T14:05:33.326Z,31.76
2018-09-12T14:08:02.636Z,31.38
2018-09-12T14:10:31.722Z,31.64
2018-09-12T14:13:01.230Z,32.56
2018-09-12T14:15:30.276Z,32.08
2018-09-12T14:17:59.419Z,32.74
2018-09-12T14:20:28.786Z,32.96
2018-09-12T14:22:57.946Z,32.69
2018-09-12T14:25:27.091Z,33.04
2018-09-12T14:27:56.534Z,32.72
2018-09-12T14:30:25.934Z,32.67
2018-09-12T14:32:55.128Z,32.08
2018-09-12T14:35:24.413Z,31.08
2018-09-12T14:37:53.522Z,32.37
2018-09-12T14:40:22.721Z,31.86
2018-09-12T14:42:52.608Z,31.77
2018-09-12T14:45:22.290Z,31.94
2018-09-12T14:47:51.578Z,32.13
2018-09-12T14:50:20.962Z,31.54
2018-09-12T14:52:50.480Z,32.15
2018-09-12T14:55:19.462Z,31.88
2018-09-12T14:57:48.783Z,32.35
2018-09-12T15:00:23.196Z,32.36
2018-09-12T15:02:52.181Z,32.38
2018-09-12T15:05:21.250Z,32.12
2018-09-12T15:07:50.431Z,32.05
2018-09-12T15:10:19.678Z,32.91
2018-09-12T15:12:48.586Z,33.08
2018-09-12T15:15:17.625Z,32.97
2018-09-12T15:17:47.093Z,33.30
2018-09-12T15:20:16.564Z,33.92
2018-09-12T15:22:45.865Z,33.51
2018-09-12T15:25:16.099Z,33.31
2018-09-12T15:27:45.088Z,33.40
2018-09-12T15:30:14.190Z,33.75
2018-09-12T15:32:43.574Z,33.83
2018-09-12T15:35:12.646Z,33.98
2018-09-12T15:37:41.790Z,34.07
2018-09-12T15:40:10.979Z,34.55
2018-09-12T15:42:40.322Z,34.25
2018-09-12T15:45:09.482Z,34.41
2018-09-12T15:47:39.196Z,34.37
2018-09-12T15:50:08.279Z,34.20
2018-09-12T15:52:37.596Z,34.13
2018-09-12T15:55:06.988Z,34.24
2018-09-12T15:57:36.185Z,34.30
2018-09-12T16:00:05.922Z,34.97
2018-09-12T16:02:35.356Z,35.12
2018-09-12T16:05:04.683Z,35.22
2018-09-12T16:07:33.792Z,35.14
2018-09-12T16:10:02.900Z,34.79
2018-09-12T16:12:31.901Z,34.96
2018-09-12T16:15:00.948Z,35.54
2018-09-12T16:17:30.442Z,34.94
2018-09-12T16:19:59.658Z,35.33
2018-09-12T16:22:28.918Z,35.58
2018-09-12T16:24:58.738Z,35.80
2018-09-12T16:27:28.115Z,35.80
2018-09-12T16:29:57.211Z,36.04
2018-09-12T16:32:26.942Z,35.90
2018-09-12T16:34:56.019Z,36.30
2018-09-12T16:37:25.125Z,36.63
2018-09-12T16:39:54.929Z,36.87
2018-09-12T16:42:24.236Z,37.54
2018-09-12T16:44:53.034Z,37.40
2018-09-12T16:47:22.337Z,37.83
2018-09-12T16:49:51.444Z,37.81
2018-09-12T16:52:20.729Z,38.00
2018-09-12T16:54:51.135Z,38.04
2018-09-12T16:57:19.332Z,38.32
2018-09-12T16:59:48.493Z,38.56
2018-09-12T17:02:17.626Z,38.56
2018-09-12T17:04:46.944Z,38.66
2018-09-12T17:07:16.200Z,39.17
2018-09-12T17:09:45.824Z,39.04
2018-09-12T17:12:15.150Z,39.67
2018-09-12T17:14:49.707Z,39.56
2018-09-12T17:17:18.904Z,39.32
2018-09-12T17:19:48.282Z,39.76
2018-09-12T17:22:17.690Z,39.88
2018-09-12T17:24:46.871Z,40.06
2018-09-12T17:27:16.093Z,40.45
2018-09-12T17:29:45.826Z,40.57
2018-09-12T17:32:15.127Z,40.94
2018-09-12T17:34:44.386Z,40.49
2018-09-12T17:37:13.687Z,40.58
2018-09-12T17:39:42.778Z,40.31
2018-09-12T17:42:12.102Z,41.10
2018-09-12T17:44:41.531Z,40.97
2018-09-12T17:47:10.694Z,41.47
2018-09-12T17:49:39.749Z,41.14
2018-09-12T17:52:09.259Z,41.73
2018-09-12T17:57:06.224Z,41.72
2018-09-12T17:59:35.770Z,42.09
2018-09-12T18:02:05.104Z,42.00
2018-09-12T18:04:34.383Z,42.81
2018-09-12T18:07:03.955Z,42.57
2018-09-12T18:09:34.478Z,42.84
2018-09-12T18:12:03.694Z,42.39
2018-09-12T18:14:33.347Z,42.80
2018-09-12T18:17:02.647Z,42.99
2018-09-12T18:19:32.043Z,42.47
2018-09-12T18:22:01.623Z,43.16
2018-09-12T18:24:32.803Z,43.45
2018-09-12T18:27:02.847Z,43.96
2018-09-12T18:29:33.400Z,43.96
2018-09-12T18:32:03.244Z,44.03
2018-09-12T18:34:32.892Z,44.16
2018-09-12T18:37:02.079Z,44.15
2018-09-12T18:39:31.380Z,44.46
2018-09-12T18:42:01.578Z,44.53
2018-09-12T18:44:30.735Z,44.61
2018-09-12T18:47:00.507Z,44.73
2018-09-12T18:49:29.982Z,45.04
2018-09-12T18:51:59.299Z,45.04
2018-09-12T18:54:28.608Z,45.32
2018-09-12T18:56:59.583Z,45.73
2018-09-12T18:59:28.809Z,45.29
2018-09-12T19:01:57.932Z,45.68
2018-09-12T19:04:27.736Z,46.05
2018-09-12T19:06:57.040Z,45.98
2018-09-12T19:09:27.119Z,46.24
2018-09-12T19:11:56.686Z,46.76
2018-09-12T19:14:25.711Z,46.59
2018-09-12T19:16:54.979Z,46.70
2018-09-12T19:19:24.970Z,47.23
2018-09-12T19:21:54.707Z,46.66
2018-09-12T19:24:24.106Z,47.11
2018-09-12T19:26:53.792Z,47.12
2018-09-12T19:29:22.992Z,47.14
2018-09-12T19:31:51.970Z,47.55
2018-09-12T19:34:21.458Z,47.01
2018-09-12T19:36:50.624Z,47.43
2018-09-12T19:39:19.790Z,48.08
2018-09-12T19:41:49.643Z,47.68
2018-09-12T19:44:18.837Z,48.25
2018-09-12T19:46:48.199Z,48.09
2018-09-12T19:49:17.700Z,48.00
2018-09-12T19:51:46.915Z,47.76
2018-09-12T19:54:16.254Z,47.76
2018-09-12T19:56:45.790Z,48.26
2018-09-12T19:59:14.967Z,48.32
2018-09-12T20:01:43.915Z,48.14
2018-09-12T20:04:13.397Z,48.26
2018-09-12T20:06:42.475Z,48.63
2018-09-12T20:09:15.664Z,49.13
2018-09-12T20:11:45.078Z,49.21
2018-09-12T20:14:14.572Z,49.76
2018-09-12T20:16:44.167Z,49.53
2018-09-12T20:19:13.646Z,49.38
2018-09-12T20:21:43.331Z,49.83
2018-09-12T20:24:12.806Z,50.12
2018-09-12T20:26:42.021Z,50.67
2018-09-12T20:29:12.558Z,51.24
2018-09-12T20:31:42.531Z,51.49
2018-09-12T20:34:12.271Z,51.82
2018-09-12T20:36:41.502Z,51.01
2018-09-12T20:39:12.250Z,51.93
2018-09-12T20:41:41.467Z,51.57
2018-09-12T20:44:11.367Z,51.58
2018-09-12T20:46:40.938Z,52.08
2018-09-12T20:49:10.253Z,51.82
2018-09-12T20:51:43.742Z,52.38
2018-09-12T20:54:15.940Z,53.41
2018-09-12T20:56:45.881Z,53.97
2018-09-12T20:59:15.211Z,54.55
2018-09-12T21:01:44.422Z,54.94
2018-09-12T21:04:13.995Z,56.01
2018-09-12T21:06:43.376Z,56.32
2018-09-12T21:09:13.753Z,56.64
2018-09-12T21:11:43.491Z,56.24
2018-09-12T21:14:12.729Z,56.89
2018-09-12T21:16:41.910Z,57.15
2018-09-12T21:19:11.730Z,57.23
2018-09-12T21:21:40.914Z,57.87
2018-09-12T21:24:10.119Z,57.87
2018-09-12T21:26:39.702Z,57.64
2018-09-12T21:29:09.139Z,58.30
2018-09-12T21:31:38.296Z,58.60
2018-09-12T21:34:07.716Z,58.84
2018-09-12T21:36:36.959Z,58.87
2018-09-12T21:39:09.458Z,60.24
2018-09-12T21:41:38.806Z,60.66
2018-09-12T21:44:08.119Z,59.80
2018-09-12T21:46:37.586Z,60.42
2018-09-12T21:49:06.795Z,60.49
2018-09-12T21:51:36.017Z,60.93
2018-09-12T21:54:05.635Z,60.97
2018-09-12T21:56:34.852Z,60.75
2018-09-12T21:59:04.030Z,61.26
2018-09-12T22:01:33.523Z,61.58
2018-09-12T22:04:02.445Z,61.18
2018-09-12T22:06:31.423Z,61.26
2018-09-12T22:09:01.262Z,62.03
2018-09-12T22:11:30.841Z,61.40
2018-09-12T22:14:00.241Z,61.54
2018-09-12T22:16:29.232Z,61.89
2018-09-12T22:18:58.946Z,61.95
2018-09-12T22:21:28.030Z,61.28
2018-09-12T22:23:57.411Z,61.09
2018-09-12T22:26:26.247Z,60.85
2018-09-12T22:28:55.326Z,60.97
2018-09-12T22:31:24.490Z,60.92
2018-09-12T22:33:53.526Z,60.76
2018-09-12T22:36:22.298Z,60.36
2018-09-12T22:38:51.856Z,61.12
2018-09-12T22:41:21.063Z,60.69
2018-09-12T22:43:50.251Z,61.03
2018-09-12T22:46:19.544Z,61.81
2018-09-12T22:48:48.398Z,61.41
2018-09-12T22:51:17.297Z,61.16
2018-09-12T22:53:46.868Z,61.71
2018-09-12T22:56:15.491Z,61.32
2018-09-12T22:58:44.292Z,61.22
2018-09-12T23:01:13.442Z,61.86
2018-09-12T23:03:42.361Z,61.23
2018-09-12T23:06:11.752Z,61.23
2018-09-12T23:08:41.191Z,61.33
2018-09-12T23:11:09.999Z,61.79
2018-09-12T23:13:39.036Z,62.19
2018-09-12T23:16:08.238Z,62.60
2018-09-12T23:18:37.999Z,63.26
2018-09-12T23:21:06.988Z,63.16
2018-09-12T23:23:36.135Z,63.22
2018-09-12T23:26:05.387Z,64.34
2018-09-12T23:28:34.265Z,62.61
2018-09-12T23:31:03.366Z,63.46
2018-09-12T23:33:32.293Z,64.06
2018-09-12T23:36:01.260Z,63.37
2018-09-12T23:38:30.294Z,64.48
2018-09-12T23:40:58.982Z,64.01
2018-09-12T23:43:27.920Z,64.28
2018-09-12T23:45:57.052Z,64.55
2018-09-12T23:48:25.904Z,64.15
2018-09-12T23:50:54.923Z,64.14
2018-09-12T23:53:24.490Z,64.49
2018-09-12T23:55:53.615Z,64.83
2018-09-12T23:58:22.347Z,64.49
